Time;durP1;ratioP1;P1;durP2;ratioP2;P2;SDS_P1;SDS_P2;PMS_P1;PMS_P2;Temp;Humidity;BMP_temperature;BMP_pressure;BME280_temperature;BME280_humidity;BME280_pressure;Samples;Min_cycle;Max_cycle;Signal;HPM_P1;HPM_P2
2021/01/19 00:01:33;;;;;;;26.58;8.77;;;;;;;5.70;94.83;101294.69;4973520;28;20057;-55
2021/01/19 00:04:00;;;;;;;26.27;10.02;;;;;;;5.69;94.91;101288.31;4974316;28;20567;-56
2021/01/19 00:06:26;;;;;;;32.95;10.35;;;;;;;5.71;95.03;101275.06;4973984;28;20142;-58
2021/01/19 00:08:54;;;;;;;35.22;9.85;;;;;;;5.72;95.41;101276.75;4973488;28;20503;-56
2021/01/19 00:11:21;;;;;;;33.55;10.50;;;;;;;5.72;95.04;101262.06;4973944;28;20043;-58
2021/01/19 00:13:47;;;;;;;33.97;10.82;;;;;;;5.73;95.20;101260.97;4973299;28;20500;-55
2021/01/19 00:16:14;;;;;;;40.67;11.40;;;;;;;5.73;95.24;101239.66;4973806;28;20125;-56
2021/01/19 00:18:41;;;;;;;42.60;10.73;;;;;;;5.76;95.43;101247.44;4973985;28;20129;-53
2021/01/19 00:21:07;;;;;;;34.90;9.88;;;;;;;5.74;95.44;101227.47;4972896;28;20088;-58
2021/01/19 00:23:34;;;;;;;36.65;10.25;;;;;;;5.76;95.68;101228.06;4973976;28;20074;-58
2021/01/19 00:26:02;;;;;;;40.67;9.27;;;;;;;5.74;95.55;101216.41;4973324;28;20042;-56
2021/01/19 00:28:28;;;;;;;42.33;8.75;;;;;;;5.74;96.00;101196.19;4973386;28;20129;-56
2021/01/19 00:30:55;;;;;;;53.45;8.15;;;;;;;5.74;96.00;101199.78;4973257;28;20086;-58
2021/01/19 00:33:22;;;;;;;47.92;8.55;;;;;;;5.74;95.76;101199.78;4973931;28;20413;-55
2021/01/19 00:35:49;;;;;;;57.70;8.20;;;;;;;5.74;96.00;101194.25;4972623;28;20428;-55
2021/01/19 00:38:15;;;;;;;41.78;7.35;;;;;;;5.72;95.92;101192.84;4973822;28;20078;-59
2021/01/19 00:40:42;;;;;;;40.25;6.63;;;;;;;5.70;95.90;101186.72;4973259;28;20043;-55
2021/01/19 00:43:10;;;;;;;41.80;6.43;;;;;;;5.68;96.11;101186.97;4972583;28;20058;-55
2021/01/19 00:45:36;;;;;;;50.55;8.07;;;;;;;5.67;96.16;101168.69;4973184;28;20550;-57
2021/01/19 00:48:04;;;;;;;48.00;6.88;;;;;;;5.67;96.03;101160.38;4973068;28;20574;-55
2021/01/19 00:50:32;;;;;;;49.85;7.13;;;;;;;5.67;95.99;101148.47;4971519;28;20047;-57
2021/01/19 00:53:02;;;;;;;45.38;6.47;;;;;;;5.67;96.04;101148.47;4971944;28;20042;-53
2021/01/19 00:55:30;;;;;;;45.45;6.90;;;;;;;5.64;96.50;101144.28;4973488;28;20126;-54
2021/01/19 00:57:57;;;;;;;53.40;7.10;;;;;;;5.65;96.07;101134.88;4972113;28;20455;-56
2021/01/19 01:00:28;;;;;;;50.45;7.75;;;;;;;5.65;96.21;101129.34;4973466;28;20078;-59
2021/01/19 01:02:55;;;;;;;39.67;6.47;;;;;;;5.64;96.38;101116.59;4972642;28;20082;-57
2021/01/19 01:05:21;;;;;;;48.80;6.88;;;;;;;5.65;96.03;101100.81;4972862;28;20460;-57
2021/01/19 01:07:48;;;;;;;41.92;6.57;;;;;;;5.65;95.88;101109.13;4972689;28;20146;-54
2021/01/19 01:10:16;;;;;;;36.05;6.40;;;;;;;5.66;95.95;101100.56;4971507;28;20059;-56
2021/01/19 01:12:44;;;;;;;48.05;6.70;;;;;;;5.64;96.22;101093.63;4972584;28;20051;-55
2021/01/19 01:15:14;;;;;;;42.75;7.40;;;;;;;5.62;95.73;101087.50;4973053;28;20043;-54
2021/01/19 01:17:42;;;;;;;47.08;7.25;;;;;;;5.59;95.74;101079.75;4971830;28;20053;-55
2021/01/19 01:20:11;;;;;;;52.35;7.60;;;;;;;5.59;95.70;101080.59;4972949;28;20046;-53
2021/01/19 01:22:40;;;;;;;46.15;8.68;;;;;;;5.56;95.76;101070.03;4972689;28;20061;-52
2021/01/19 01:25:09;;;;;;;47.08;7.43;;;;;;;5.54;96.10;101067.53;4972490;28;20129;-53
2021/01/19 01:27:35;;;;;;;41.28;7.28;;;;;;;5.53;95.80;101059.47;4972413;28;20388;-55
2021/01/19 01:30:03;;;;;;;46.78;8.00;;;;;;;5.50;95.95;101051.69;4972637;28;20416;-51
2021/01/19 01:32:30;;;;;;;38.58;7.05;;;;;;;5.48;96.03;101064.94;4971667;28;20126;-51
2021/01/19 01:34:57;;;;;;;43.60;7.40;;;;;;;5.48;95.97;101040.03;4972777;28;20507;-53
2021/01/19 01:37:24;;;;;;;40.00;6.47;;;;;;;5.48;96.14;101040.03;4971739;28;20134;-57
2021/01/19 01:39:51;;;;;;;37.50;6.38;;;;;;;5.45;96.24;101029.47;4970730;28;20134;-51
2021/01/19 01:42:21;;;;;;;43.08;7.55;;;;;;;5.44;96.17;101019.50;4972574;28;20146;-52
2021/01/19 01:44:48;;;;;;;42.63;6.82;;;;;;;5.43;96.07;101026.13;4972183;28;20500;-49
2021/01/19 01:47:21;;;;;;;40.95;6.30;;;;;;;5.41;95.97;101023.63;4972130;28;20476;-51
2021/01/19 01:49:49;;;;;;;41.22;7.45;;;;;;;5.41;96.06;101003.44;4971854;28;20089;-51
2021/01/19 01:52:17;;;;;;;43.42;7.53;;;;;;;5.37;96.50;101003.13;4972041;28;20047;-54
2021/01/19 01:54:46;;;;;;;44.13;7.13;;;;;;;5.38;96.29;101003.97;4972010;28;20081;-52
2021/01/19 01:57:13;;;;;;;45.47;7.47;;;;;;;5.36;96.36;100987.63;4972272;28;20050;-53
2021/01/19 01:59:40;;;;;;;35.20;6.43;;;;;;;5.37;96.09;100982.94;4971609;28;20050;-49
2021/01/19 02:02:08;;;;;;;42.17;6.93;;;;;;;5.35;96.07;100968.53;4972196;28;20559;-55
2021/01/19 02:04:35;;;;;;;46.70;7.55;;;;;;;5.35;96.25;100968.53;4971988;28;20055;-53
2021/01/19 02:07:06;;;;;;;44.28;6.55;;;;;;;5.36;96.12;100964.66;4971924;28;20142;-50
2021/01/19 02:09:42;;;;;;;41.03;6.28;;;;;;;5.33;96.46;100954.13;4972088;28;20142;-52
2021/01/19 02:12:16;;;;;;;40.55;7.82;;;;;;;5.33;96.34;100956.88;4972338;28;20051;-52
2021/01/19 02:14:53;;;;;;;38.08;6.82;;;;;;;5.32;96.36;100936.69;4971541;28;20034;-52
2021/01/19 02:17:27;;;;;;;42.10;7.18;;;;;;;5.27;96.48;100933.84;4972392;28;20138;-53
2021/01/19 02:20:28;;;;;;;42.38;7.57;;;;;;;5.30;96.28;100938.03;4971735;28;20043;-50
2021/01/19 02:23:13;;;;;;;42.25;6.85;;;;;;;5.31;96.45;100917.56;4972587;28;20051;-53
2021/01/19 02:26:02;;;;;;;48.13;8.57;;;;;;;5.29;96.56;100900.41;4971924;28;20074;-50
2021/01/19 02:28:35;;;;;;;44.50;8.90;;;;;;;5.30;96.33;100907.59;4952220;28;20092;-59
2021/01/19 02:31:31;;;;;;;39.20;7.15;;;;;;;5.34;96.36;100905.97;4971795;28;20074;-53
2021/01/19 02:34:11;;;;;;;39.00;7.07;;;;;;;5.31;96.65;100890.72;4926593;28;20531;-56
2021/01/19 02:36:49;;;;;;;38.67;7.47;;;;;;;5.33;96.39;100884.94;4971001;28;20053;-53
2021/01/19 02:39:28;;;;;;;39.65;6.78;;;;;;;5.33;96.28;100871.09;4972014;28;20051;-51
2021/01/19 02:41:57;;;;;;;39.15;7.30;;;;;;;5.30;96.19;100860.56;4970407;28;20141;-52
2021/01/19 02:44:29;;;;;;;34.25;7.25;;;;;;;5.32;96.04;100863.91;4970563;28;20082;-51
2021/01/19 02:46:59;;;;;;;39.85;7.70;;;;;;;5.30;96.20;100855.88;4971732;28;20054;-50
2021/01/19 02:49:27;;;;;;;33.30;7.88;;;;;;;5.33;95.96;100835.97;4973534;28;20199;-55
2021/01/19 02:51:55;;;;;;;42.85;8.90;;;;;;;5.34;96.05;100834.03;4975489;28;20047;-58
2021/01/19 02:54:22;;;;;;;40.00;8.07;;;;;;;5.31;96.16;100829.03;4975969;28;20125;-53
2021/01/19 02:57:02;;;;;;;38.95;7.97;;;;;;;5.30;95.81;100830.13;4974618;28;20161;-55
2021/01/19 02:59:38;;;;;;;46.10;7.70;;;;;;;5.31;95.94;100799.44;4955943;28;20139;-57
2021/01/19 03:02:08;;;;;;;40.63;7.63;;;;;;;5.28;96.39;100791.66;4975086;28;20077;-58
2021/01/19 03:04:38;;;;;;;36.20;8.40;;;;;;;5.33;96.43;100790.88;4955887;28;20102;-55
2021/01/19 03:07:06;;;;;;;43.05;7.95;;;;;;;5.34;96.02;100785.06;4973856;28;20427;-57
2021/01/19 03:09:35;;;;;;;40.03;8.00;;;;;;;5.35;96.10;100775.69;4975333;28;20137;-52
2021/01/19 03:12:03;;;;;;;40.67;8.00;;;;;;;5.39;96.17;100767.69;4974689;28;20043;-55
2021/01/19 03:14:30;;;;;;;41.47;7.45;;;;;;;5.38;96.55;100775.16;4975208;28;20145;-55
2021/01/19 03:17:04;;;;;;;41.97;8.20;;;;;;;5.38;96.45;100768.78;4974196;28;20105;-54
2021/01/19 03:19:34;;;;;;;39.63;6.97;;;;;;;5.37;96.27;100765.19;4975202;28;20484;-55
2021/01/19 03:22:02;;;;;;;39.30;8.05;;;;;;;5.36;96.64;100766.28;4975044;28;20387;-55
2021/01/19 03:24:29;;;;;;;34.97;7.82;;;;;;;5.38;96.04;100754.94;4974501;28;20121;-51
2021/01/19 03:26:56;;;;;;;37.88;8.27;;;;;;;5.37;96.42;100753.28;4974501;28;20057;-55
2021/01/19 03:29:23;;;;;;;35.97;8.00;;;;;;;5.38;96.44;100746.66;4975376;28;20166;-59
2021/01/19 03:31:50;;;;;;;34.38;7.65;;;;;;;5.36;96.47;100746.06;4973687;28;20047;-56
2021/01/19 03:34:17;;;;;;;34.70;7.97;;;;;;;5.35;96.62;100741.63;4974893;28;20474;-58
2021/01/19 03:36:43;;;;;;;30.02;7.60;;;;;;;5.34;96.51;100729.75;4974407;28;21071;-55
2021/01/19 03:39:11;;;;;;;41.08;8.75;;;;;;;5.33;96.58;100733.59;4974058;28;20045;-56
2021/01/19 03:41:38;;;;;;;31.65;7.50;;;;;;;5.35;96.53;100714.81;4974449;28;20139;-52
2021/01/19 03:44:05;;;;;;;39.13;8.63;;;;;;;5.36;96.53;100699.03;4974598;28;20051;-52
2021/01/19 03:46:32;;;;;;;37.40;7.68;;;;;;;5.35;96.87;100697.38;4974058;28;20050;-49
2021/01/19 03:48:59;;;;;;;35.10;7.80;;;;;;;5.36;96.97;100702.63;4974329;28;20101;-49
2021/01/19 03:51:29;;;;;;;34.55;9.45;;;;;;;5.36;96.83;100686.03;4974460;28;20082;-53
2021/01/19 03:53:56;;;;;;;32.67;8.77;;;;;;;5.35;97.09;100684.38;4973532;28;20151;-51
2021/01/19 03:56:23;;;;;;;35.97;8.68;;;;;;;5.34;97.25;100691.00;4974717;28;20055;-55
2021/01/19 03:58:50;;;;;;;37.72;9.10;;;;;;;5.36;97.01;100683.28;4973675;28;20476;-53
2021/01/19 04:01:17;;;;;;;33.10;9.80;;;;;;;5.38;97.38;100669.16;4973714;28;20463;-52
2021/01/19 04:03:44;;;;;;;43.10;9.65;;;;;;;5.39;97.32;100670.84;4973880;28;20051;-52
2021/01/19 04:06:11;;;;;;;35.55;9.32;;;;;;;5.40;97.21;100656.69;4973678;28;20473;-50
2021/01/19 04:08:39;;;;;;;59.45;10.57;;;;;;;5.42;97.54;100648.13;4973673;28;20334;-48
2021/01/19 04:11:06;;;;;;;39.25;10.05;;;;;;;5.44;97.58;100648.69;4974055;28;20055;-54
2021/01/19 04:13:35;;;;;;;36.75;9.02;;;;;;;5.47;97.22;100642.63;4973436;28;20117;-51
2021/01/19 04:16:02;;;;;;;40.38;10.10;;;;;;;5.44;97.41;100632.09;4974047;28;20043;-53
2021/01/19 04:18:29;;;;;;;43.35;8.85;;;;;;;5.46;97.36;100624.34;4973666;28;20404;-51
2021/01/19 04:20:55;;;;;;;47.25;9.25;;;;;;;5.49;97.70;100615.53;4973291;28;20408;-49
2021/01/19 04:23:22;;;;;;;40.55;9.32;;;;;;;5.50;97.79;100611.66;4973793;28;20058;-49
2021/01/19 04:25:50;;;;;;;46.75;9.05;;;;;;;5.51;97.68;100599.47;4973758;28;20050;-51
2021/01/19 04:28:17;;;;;;;45.05;9.68;;;;;;;5.51;97.64;100585.63;4972939;28;20053;-53
2021/01/19 04:30:47;;;;;;;41.42;9.20;;;;;;;5.52;97.61;100579.84;4973621;28;20046;-50
2021/01/19 04:33:14;;;;;;;40.90;8.65;;;;;;;5.52;97.99;100579.00;4973489;28;20500;-50
2021/01/19 04:35:45;;;;;;;39.35;8.98;;;;;;;5.52;97.97;100565.16;4973474;28;20455;-50
2021/01/19 04:38:12;;;;;;;47.47;9.70;;;;;;;5.55;98.22;100553.56;4973460;28;20043;-53
2021/01/19 04:40:39;;;;;;;41.30;9.35;;;;;;;5.58;98.09;100552.19;4973318;28;20515;-55
2021/01/19 04:43:06;;;;;;;43.40;9.00;;;;;;;5.58;98.24;100541.94;4972972;28;20524;-52
2021/01/19 04:45:33;;;;;;;43.20;8.93;;;;;;;5.59;98.02;100540.84;4973038;28;20154;-51
2021/01/19 04:48:02;;;;;;;46.95;9.65;;;;;;;5.60;98.02;100534.16;4954104;28;20592;-49
2021/01/19 04:50:29;;;;;;;44.45;8.98;;;;;;;5.62;98.08;100543.03;4971477;28;20058;-52
2021/01/19 04:53:00;;;;;;;40.83;8.00;;;;;;;5.64;98.30;100531.69;4973519;28;20091;-49
2021/01/19 04:55:27;;;;;;;49.72;10.52;;;;;;;5.64;98.46;100531.69;4972390;28;20482;-53
2021/01/19 04:57:58;;;;;;;50.53;10.48;;;;;;;5.63;97.99;100528.09;4973259;28;20063;-56
2021/01/19 05:00:29;;;;;;;36.25;8.70;;;;;;;5.63;98.18;100521.72;4972745;28;20122;-49
2021/01/19 05:03:16;;;;;;;43.58;9.50;;;;;;;5.64;98.43;100507.59;4972945;28;20089;-52
2021/01/19 05:06:01;;;;;;;41.30;9.05;;;;;;;5.63;98.49;100505.13;4972808;28;20568;-52
2021/01/19 05:08:54;;;;;;;38.58;9.40;;;;;;;5.64;98.30;100490.16;4973124;28;20051;-52
2021/01/19 05:11:23;;;;;;;41.08;9.40;;;;;;;5.66;98.51;100494.31;4972159;28;20046;-48
2021/01/19 05:13:53;;;;;;;44.92;9.23;;;;;;;5.67;98.88;100476.63;4973042;28;20050;-49
2021/01/19 05:16:25;;;;;;;34.75;8.45;;;;;;;5.70;98.69;100466.94;4972265;28;20054;-52
2021/01/19 05:18:54;;;;;;;40.50;9.65;;;;;;;5.71;98.67;100463.88;4972894;28;20133;-50
2021/01/19 05:21:21;;;;;;;40.65;9.55;;;;;;;5.72;98.94;100468.31;4972425;28;20051;-56
2021/01/19 05:23:48;;;;;;;35.83;8.07;;;;;;;5.75;98.42;100462.22;4972286;28;20054;-53
2021/01/19 05:26:16;;;;;;;41.22;8.88;;;;;;;5.77;98.91;100443.41;4972551;28;20493;-53
2021/01/19 05:28:45;;;;;;;43.47;9.00;;;;;;;5.77;98.50;100450.88;4972762;28;20054;-52
2021/01/19 05:31:21;;;;;;;42.38;9.27;;;;;;;5.78;98.69;100441.47;4972024;28;20089;-51
2021/01/19 05:34:06;;;;;;;39.15;9.10;;;;;;;5.78;98.77;100436.75;4972489;28;20051;-52
2021/01/19 05:36:39;;;;;;;38.88;9.25;;;;;;;5.79;98.85;100430.13;4972369;28;20145;-53
2021/01/19 05:39:08;;;;;;;34.67;9.77;;;;;;;5.77;98.52;100428.75;4972097;28;20121;-51
2021/01/19 05:41:38;;;;;;;43.50;9.23;;;;;;;5.80;98.58;100415.13;4972175;28;20125;-49
2021/01/19 05:44:19;;;;;;;49.50;10.13;;;;;;;5.81;98.52;100402.13;4972629;28;20050;-52
2021/01/19 05:46:52;;;;;;;38.55;8.77;;;;;;;5.81;98.56;100386.34;4972540;28;20050;-55
2021/01/19 05:49:22;;;;;;;41.17;8.80;;;;;;;5.79;98.48;100391.38;4972506;28;20500;-55
2021/01/19 05:51:50;;;;;;;41.63;9.23;;;;;;;5.82;98.61;100388.00;4971510;28;20057;-51
2021/01/19 05:54:24;;;;;;;50.08;9.55;;;;;;;5.83;98.66;100378.59;4972451;28;20368;-53
2021/01/19 05:56:51;;;;;;;41.45;8.40;;;;;;;5.81;98.49;100380.81;4971921;28;20101;-52
2021/01/19 05:59:32;;;;;;;42.80;8.85;;;;;;;5.84;98.71;100369.19;4972122;28;20121;-52
2021/01/19 06:02:01;;;;;;;47.15;8.35;;;;;;;5.83;98.90;100370.28;4971123;28;20145;-53
2021/01/19 06:04:34;;;;;;;42.00;8.32;;;;;;;5.83;98.47;100361.97;4972300;28;20057;-49
2021/01/19 06:07:01;;;;;;;33.65;7.78;;;;;;;5.83;98.47;100361.16;4971347;28;20070;-50
2021/01/19 06:09:28;;;;;;;34.05;8.25;;;;;;;5.84;98.58;100355.34;4972358;28;20403;-50
2021/01/19 06:11:57;;;;;;;45.47;9.93;;;;;;;5.82;98.38;100338.16;4972169;28;20106;-49
2021/01/19 06:14:25;;;;;;;41.67;8.18;;;;;;;5.84;98.64;100341.50;4971735;28;20070;-51
2021/01/19 06:17:03;;;;;;;43.38;8.73;;;;;;;5.81;98.39;100358.66;4971927;28;20121;-54
2021/01/19 06:19:31;;;;;;;40.80;8.02;;;;;;;5.83;98.51;100344.53;4969973;28;20042;-51
2021/01/19 06:22:04;;;;;;;39.90;7.75;;;;;;;5.85;98.57;100345.09;4972120;28;20047;-49
2021/01/19 06:24:31;;;;;;;40.90;8.32;;;;;;;5.85;98.40;100342.31;4971536;28;20134;-52
2021/01/19 06:26:59;;;;;;;48.78;8.75;;;;;;;5.83;98.41;100342.59;4975369;28;20046;-55
2021/01/19 06:29:27;;;;;;;40.30;7.85;;;;;;;5.85;98.73;100334.84;4975736;28;20146;-50
2021/01/19 06:31:56;;;;;;;46.58;8.00;;;;;;;5.87;98.58;100320.72;4975749;28;20065;-49
2021/01/19 06:34:27;;;;;;;41.33;7.70;;;;;;;5.84;98.63;100312.97;4973364;28;20051;-53
2021/01/19 06:36:54;;;;;;;43.22;7.18;;;;;;;5.88;98.97;100303.88;4976039;28;20050;-55
2021/01/19 06:39:54;;;;;;;45.30;7.65;;;;;;;5.89;98.88;100304.69;4974228;28;20042;-50
2021/01/19 06:42:27;;;;;;;37.50;6.20;;;;;;;5.86;99.03;100297.75;4936420;28;20062;-51
2021/01/19 06:44:55;;;;;;;39.33;6.20;;;;;;;5.88;99.13;100287.25;4975535;28;20050;-51
2021/01/19 06:47:23;;;;;;;37.05;6.68;;;;;;;5.90;98.90;100300.00;4975515;28;20467;-54
2021/01/19 06:49:56;;;;;;;31.60;6.10;;;;;;;5.91;98.93;100287.81;4973716;28;20156;-51
2021/01/19 06:52:31;;;;;;;31.65;5.30;;;;;;;5.92;99.12;100300.53;4975604;28;20126;-48
2021/01/19 06:55:23;;;;;;;38.50;6.07;;;;;;;5.94;98.83;100287.25;4974411;28;20054;-54
2021/01/19 06:58:10;;;;;;;31.60;5.07;;;;;;;5.93;98.54;100282.81;4975346;28;20062;-54
2021/01/19 07:00:40;;;;;;;32.67;5.30;;;;;;;5.93;98.80;100269.78;4974945;28;20122;-53
2021/01/19 07:03:19;;;;;;;36.13;5.53;;;;;;;5.94;98.91;100256.78;4974690;28;20066;-56
2021/01/19 07:05:54;;;;;;;29.80;5.00;;;;;;;5.94;98.44;100251.25;4974581;28;20042;-51
2021/01/19 07:09:15;;;;;;;38.78;5.50;;;;;;;5.95;98.39;100231.56;4975220;28;20518;-51
2021/01/19 07:12:10;;;;;;;29.77;4.60;;;;;;;5.95;98.59;100226.03;4966131;28;20468;-54
2021/01/19 07:14:42;;;;;;;31.38;4.60;;;;;;;5.95;98.46;100214.97;4940601;28;20050;-52
2021/01/19 07:17:17;;;;;;;42.30;5.63;;;;;;;5.98;98.68;100208.88;4974703;28;20051;-55
2021/01/19 07:19:49;;;;;;;41.38;5.30;;;;;;;6.00;98.55;100205.78;4974921;28;20053;-52
2021/01/19 07:22:49;;;;;;;34.70;5.03;;;;;;;6.02;98.49;100187.75;4974912;28;20042;-51
2021/01/19 07:25:16;;;;;;;33.80;4.40;;;;;;;6.02;99.06;100182.22;4974601;28;20305;-51
2021/01/19 07:27:45;;;;;;;39.60;4.35;;;;;;;6.05;99.01;100180.84;4975011;28;20488;-51
2021/01/19 07:30:13;;;;;;;39.85;4.65;;;;;;;6.07;98.68;100173.91;4974461;28;20400;-50
2021/01/19 07:32:41;;;;;;;40.97;4.75;;;;;;;6.09;98.75;100168.91;4975007;28;20077;-51
2021/01/19 07:35:10;;;;;;;35.63;4.05;;;;;;;6.12;99.02;100165.56;4973317;28;20137;-52
2021/01/19 07:37:37;;;;;;;37.15;3.78;;;;;;;6.18;98.38;100158.06;4974213;28;20074;-50
2021/01/19 07:40:16;;;;;;;37.10;3.88;;;;;;;6.21;98.52;100151.91;4974284;28;20086;-53
2021/01/19 07:42:45;;;;;;;36.75;4.10;;;;;;;6.25;98.81;100144.69;4965571;28;20061;-52
2021/01/19 07:45:12;;;;;;;42.20;4.88;;;;;;;6.30;98.51;100138.28;4973726;28;20082;-50
2021/01/19 07:47:40;;;;;;;41.20;4.75;;;;;;;6.37;98.70;100127.72;4974518;28;20759;-48
2021/01/19 07:50:12;;;;;;;26.05;3.47;;;;;;;6.46;99.27;100145.34;4974207;28;20431;-50
2021/01/19 07:52:41;;;;;;;37.28;3.40;;;;;;;6.53;100.00;100138.38;4972753;28;20086;-50
2021/01/19 07:55:15;;;;;;;38.03;3.50;;;;;;;6.63;99.68;100139.41;4973899;28;20452;-49
2021/01/19 07:57:47;;;;;;;30.13;3.72;;;;;;;6.69;99.35;100141.00;4972429;28;20058;-48
2021/01/19 08:00:22;;;;;;;38.17;3.83;;;;;;;6.74;99.48;100152.06;4973520;28;20049;-48
2021/01/19 08:02:49;;;;;;;33.80;4.18;;;;;;;6.77;99.28;100146.78;4971319;28;20042;-48
2021/01/19 08:05:26;;;;;;;38.85;4.07;;;;;;;6.81;99.42;100161.69;4973337;28;20113;-50
2021/01/19 08:07:56;;;;;;;40.75;4.35;;;;;;;6.88;99.21;100145.53;4974275;28;20046;-47
2021/01/19 08:10:24;;;;;;;49.00;4.88;;;;;;;6.98;99.04;100152.13;4974022;28;20046;-49
2021/01/19 08:12:54;;;;;;;43.38;3.53;;;;;;;7.04;98.90;100151.75;4973329;28;20133;-50
2021/01/19 08:15:27;;;;;;;39.58;4.82;;;;;;;7.11;99.21;100143.91;4974105;28;20046;-48
2021/01/19 08:17:54;;;;;;;;;;;;;;;7.13;99.14;100147.22;4974151;28;20488;-49
2021/01/19 08:20:28;;;;;;;57.50;5.45;;;;;;;7.15;99.16;100145.00;4973285;28;19933;-53
2021/01/19 08:22:56;;;;;;;53.53;4.65;;;;;;;7.20;98.83;100146.84;4973737;28;20050;-49
2021/01/19 08:25:25;;;;;;;49.10;4.78;;;;;;;7.25;98.67;100144.03;4973988;28;20161;-48
2021/01/19 08:27:53;;;;;;;53.15;4.90;;;;;;;7.30;98.74;100148.72;4973030;28;20488;-49
2021/01/19 08:30:26;;;;;;;63.13;6.53;;;;;;;7.34;98.65;100136.72;4973975;28;20047;-55
2021/01/19 08:32:54;;;;;;;51.03;5.20;;;;;;;7.40;98.91;100141.06;4973230;28;20066;-49
2021/01/19 08:35:22;;;;;;;52.30;5.60;;;;;;;7.50;99.22;100140.97;4973252;28;20460;-51
2021/01/19 08:37:51;;;;;;;57.45;5.22;;;;;;;7.61;99.35;100130.56;4973292;28;20480;-48
2021/01/19 08:40:26;;;;;;;41.88;4.57;;;;;;;7.72;99.79;100129.31;4973129;28;20078;-52
2021/01/19 08:42:55;;;;;;;65.60;5.57;;;;;;;7.77;99.71;100140.34;4973106;28;20058;-51
2021/01/19 08:45:25;;;;;;;58.25;5.32;;;;;;;7.82;99.77;100147.78;4973325;28;20137;-52
2021/01/19 08:47:55;;;;;;;41.00;4.53;;;;;;;7.84;99.49;100139.97;4972563;28;20082;-53
2021/01/19 08:50:24;;;;;;;50.50;5.65;;;;;;;7.85;99.37;100147.19;4973679;28;20412;-55
2021/01/19 08:52:51;;;;;;;57.28;6.32;;;;;;;7.86;99.45;100141.31;4971800;28;20371;-52
2021/01/19 08:55:19;;;;;;;48.17;5.05;;;;;;;7.87;99.41;100150.47;4972829;28;20137;-53
2021/01/19 08:58:18;;;;;;;;;;;;;;;7.81;99.43;100154.44;4965485;28;20456;-53
2021/01/19 09:00:45;;;;;;;44.28;4.88;;;;;;;7.82;99.57;100156.09;4972071;28;19922;-49
2021/01/19 09:03:14;;;;;;;59.60;5.10;;;;;;;7.86;99.51;100149.66;4972272;28;20054;-51
2021/01/19 09:06:01;;;;;;;58.65;5.13;;;;;;;7.87;99.65;100159.66;4973293;28;20049;-53
2021/01/19 09:08:28;;;;;;;45.75;4.72;;;;;;;7.88;99.60;100166.03;4972103;28;20047;-57
2021/01/19 09:11:05;;;;;;;62.90;7.47;;;;;;;7.90;99.20;100172.94;4973166;28;20137;-57
2021/01/19 09:14:00;;;;;;;56.47;5.10;;;;;;;7.87;99.34;100165.19;4972808;28;20408;-56
2021/01/19 09:16:29;;;;;;;58.10;6.18;;;;;;;7.88;99.90;100169.63;4972326;28;20567;-57
2021/01/19 09:18:57;;;;;;;44.92;5.00;;;;;;;7.93;99.40;100174.31;4972156;28;20078;-56
2021/01/19 09:21:24;;;;;;;69.93;6.47;;;;;;;7.96;99.41;100173.72;4972890;28;20106;-56
2021/01/19 09:23:51;;;;;;;44.22;4.95;;;;;;;7.94;99.28;100179.56;4971921;28;20130;-57
2021/01/19 09:26:18;;;;;;;54.28;4.78;;;;;;;7.98;99.29;100184.53;4972900;28;20070;-55
2021/01/19 09:28:45;;;;;;;54.67;5.28;;;;;;;7.95;99.36;100181.22;4972272;28;20142;-55
2021/01/19 09:31:16;;;;;;;50.90;5.47;;;;;;;7.99;98.97;100181.44;4971963;28;20045;-55
2021/01/19 09:33:44;;;;;;;47.97;5.38;;;;;;;7.95;99.05;100186.78;4972607;28;20051;-55
2021/01/19 09:36:13;;;;;;;55.30;6.25;;;;;;;7.93;99.18;100194.56;4972754;28;20385;-57
2021/01/19 09:38:41;;;;;;;43.22;5.05;;;;;;;7.93;99.10;100191.78;4971620;28;20062;-58
2021/01/19 09:41:09;;;;;;;47.20;4.82;;;;;;;7.94;99.24;100199.00;4972044;28;20054;-58
2021/01/19 09:43:36;;;;;;;60.45;6.15;;;;;;;7.91;99.32;100207.94;4971687;28;20053;-57
2021/01/19 09:46:05;;;;;;;49.47;4.72;;;;;;;7.93;99.34;100211.25;4971131;28;20560;-54
2021/01/19 09:48:36;;;;;;;40.83;4.50;;;;;;;7.95;99.18;100211.78;4972525;28;20064;-57
2021/01/19 09:51:05;;;;;;;44.47;4.95;;;;;;;7.95;99.15;100217.34;4971746;28;20086;-56
2021/01/19 09:53:35;;;;;;;53.15;4.95;;;;;;;7.93;99.11;100221.53;4972298;28;20051;-56
2021/01/19 09:56:13;;;;;;;55.97;5.72;;;;;;;7.93;99.04;100230.69;4966774;28;20085;-58
2021/01/19 09:58:40;;;;;;;49.47;4.40;;;;;;;7.92;99.13;100240.16;4971150;28;20128;-57
2021/01/19 10:01:07;;;;;;;48.63;4.30;;;;;;;7.95;99.08;100236.78;4971990;28;20492;-53
2021/01/19 10:03:36;;;;;;;34.30;3.63;;;;;;;7.93;99.08;100232.63;4971304;28;20063;-56
2021/01/19 10:06:05;;;;;;;36.92;4.43;;;;;;;7.94;98.83;100228.75;4971319;28;20082;-55
2021/01/19 10:08:33;;;;;;;32.63;4.07;;;;;;;7.97;99.14;100232.88;4972131;28;20053;-56
2021/01/19 10:11:00;;;;;;;46.47;5.05;;;;;;;7.97;99.06;100235.66;4971981;28;20042;-55
2021/01/19 10:13:30;;;;;;;51.00;4.50;;;;;;;7.94;99.02;100237.06;4971764;28;20114;-55
2021/01/19 10:16:08;;;;;;;39.53;4.05;;;;;;;7.98;99.19;100240.91;4971805;28;20082;-58
2021/01/19 10:18:37;;;;;;;45.85;5.18;;;;;;;7.99;98.87;100247.31;4972145;28;20391;-57
2021/01/19 10:21:03;;;;;;;34.65;3.72;;;;;;;7.99;98.86;100238.97;4971359;28;20554;-57
2021/01/19 10:23:33;;;;;;;34.95;4.13;;;;;;;8.00;99.10;100241.41;4972030;28;20385;-57
2021/01/19 10:26:08;;;;;;;29.52;4.25;;;;;;;8.02;98.99;100233.63;4971182;28;20068;-58
2021/01/19 10:28:41;;;;;;;34.35;3.13;;;;;;;8.06;99.04;100243.00;4972068;28;20086;-59
2021/01/19 10:31:15;;;;;;;32.05;4.20;;;;;;;8.03;98.92;100240.00;4971534;28;20043;-60
2021/01/19 10:33:56;;;;;;;43.33;4.40;;;;;;;8.02;98.52;100247.50;4971394;28;20054;-61
2021/01/19 10:36:24;;;;;;;32.05;3.67;;;;;;;7.96;98.59;100248.72;4971744;28;20504;-62
2021/01/19 10:38:51;;;;;;;50.47;4.43;;;;;;;7.94;98.62;100240.69;4972091;28;20078;-62
2021/01/19 10:41:28;;;;;;;33.72;3.75;;;;;;;7.92;98.49;100239.31;4970818;28;20110;-62
2021/01/19 10:44:00;;;;;;;39.88;4.80;;;;;;;7.89;98.37;100246.28;4971914;28;20047;-63
2021/01/19 10:46:29;;;;;;;41.42;4.15;;;;;;;7.91;98.45;100252.38;4967622;28;20057;-64
2021/01/19 10:49:01;;;;;;;34.05;4.22;;;;;;;7.87;98.42;100253.25;4971634;28;20138;-64
2021/01/19 10:51:28;;;;;;;30.05;3.28;;;;;;;7.85;98.64;100250.78;4971680;28;20054;-64
2021/01/19 10:54:12;;;;;;;38.40;3.95;;;;;;;7.88;98.49;100250.19;4971359;28;20137;-65
2021/01/19 10:56:42;;;;;;;33.15;4.07;;;;;;;7.84;98.22;100251.91;4971277;28;20042;-64
2021/01/19 10:59:09;;;;;;;37.67;3.63;;;;;;;7.84;98.31;100256.63;4971788;28;20471;-64
2021/01/19 11:01:37;;;;;;;33.67;3.70;;;;;;;7.86;98.30;100268.28;4970948;28;20129;-64
2021/01/19 11:04:06;;;;;;;30.67;3.10;;;;;;;7.86;98.58;100260.75;4971656;28;20051;-64
2021/01/19 11:06:34;;;;;;;37.75;4.05;;;;;;;7.85;98.40;100256.31;4971325;28;20084;-64
2021/01/19 11:09:02;;;;;;;34.47;4.03;;;;;;;7.82;98.32;100253.31;4971119;28;20133;-64
2021/01/19 11:11:29;;;;;;;37.03;3.28;;;;;;;7.84;98.36;100259.41;4974638;28;20122;-63
2021/01/19 11:13:59;;;;;;;48.15;3.83;;;;;;;7.85;98.55;100259.09;4962776;28;20469;-65
2021/01/19 11:16:30;;;;;;;23.08;2.67;;;;;;;7.86;98.59;100260.75;4974806;28;20054;-65
2021/01/19 11:19:01;;;;;;;32.95;3.63;;;;;;;7.88;98.30;100263.25;4974177;28;20117;-65
2021/01/19 11:21:30;;;;;;;26.98;2.60;;;;;;;7.88;98.31;100264.06;4974060;28;20035;-65
2021/01/19 11:23:58;;;;;;;35.03;3.05;;;;;;;7.84;98.44;100263.00;4973264;28;20043;-65
2021/01/19 11:26:25;;;;;;;25.80;2.38;;;;;;;7.84;98.45;100268.56;4974249;28;20055;-65
2021/01/19 11:28:52;;;;;;;28.77;2.63;;;;;;;7.88;98.35;100263.25;4973555;28;20058;-63
2021/01/19 11:31:20;;;;;;;29.50;3.60;;;;;;;7.90;98.42;100266.56;4973575;28;20077;-65
2021/01/19 11:33:47;;;;;;;36.38;3.65;;;;;;;7.94;98.23;100265.69;4973979;28;20046;-65
2021/01/19 11:36:22;;;;;;;25.65;2.58;;;;;;;7.92;98.53;100267.09;4974056;28;20039;-65
2021/01/19 11:38:50;;;;;;;31.88;2.78;;;;;;;7.93;98.23;100261.25;4974356;28;20062;-66
2021/01/19 11:41:19;;;;;;;27.55;2.75;;;;;;;7.95;98.46;100267.34;4974402;28;20066;-65